sensor_id;sensor_type;location;lat;lon;timestamp;pressure;altitude;pressure_sealevel;temperature
15062;BMP180;7630;50.306;8.566;2023-06-14T00:03:25;97663.00;;;17.90
15062;BMP180;7630;50.306;8.566;2023-06-14T00:07:35;97663.00;;;17.80
15062;BMP180;7630;50.306;8.566;2023-06-14T00:11:36;97665.00;;;17.90
15062;BMP180;7630;50.306;8.566;2023-06-14T00:15:38;97661.00;;;17.80
15062;BMP180;7630;50.306;8.566;2023-06-14T00:19:39;97664.00;;;16.90
15062;BMP180;7630;50.306;8.566;2023-06-14T00:23:41;97662.00;;;17.00
15062;BMP180;7630;50.306;8.566;2023-06-14T00:27:42;97668.00;;;17.50
15062;BMP180;7630;50.306;8.566;2023-06-14T00:31:43;97673.00;;;17.50
15062;BMP180;7630;50.306;8.566;2023-06-14T00:35:44;97664.00;;;17.40
15062;BMP180;7630;50.306;8.566;2023-06-14T00:39:45;97660.00;;;17.60
15062;BMP180;7630;50.306;8.566;2023-06-14T00:43:46;97655.00;;;17.40
15062;BMP180;7630;50.306;8.566;2023-06-14T00:47:48;97659.00;;;17.30
15062;BMP180;7630;50.306;8.566;2023-06-14T00:51:52;97660.00;;;17.30
15062;BMP180;7630;50.306;8.566;2023-06-14T00:55:53;97662.00;;;17.20
15062;BMP180;7630;50.306;8.566;2023-06-14T00:59:54;97660.00;;;17.10
15062;BMP180;7630;50.306;8.566;2023-06-14T01:03:56;97665.00;;;16.90
15062;BMP180;7630;50.306;8.566;2023-06-14T01:08:23;97664.00;;;16.90
15062;BMP180;7630;50.306;8.566;2023-06-14T01:16:40;97665.00;;;16.20
15062;BMP180;7630;50.306;8.566;2023-06-14T01:20:47;97666.00;;;16.70
15062;BMP180;7630;50.306;8.566;2023-06-14T01:24:47;97658.00;;;16.80
15062;BMP180;7630;50.306;8.566;2023-06-14T01:28:49;97662.00;;;16.50
15062;BMP180;7630;50.306;8.566;2023-06-14T01:32:52;97666.00;;;16.50
15062;BMP180;7630;50.306;8.566;2023-06-14T01:36:54;97684.00;;;16.40
15062;BMP180;7630;50.306;8.566;2023-06-14T01:40:58;97655.00;;;16.30
15062;BMP180;7630;50.306;8.566;2023-06-14T01:45:01;97657.00;;;16.30
15062;BMP180;7630;50.306;8.566;2023-06-14T01:49:03;97659.00;;;16.30
15062;BMP180;7630;50.306;8.566;2023-06-14T01:53:08;97654.00;;;16.40
15062;BMP180;7630;50.306;8.566;2023-06-14T01:57:11;97657.00;;;16.30
15062;BMP180;7630;50.306;8.566;2023-06-14T02:01:12;97655.00;;;16.00
15062;BMP180;7630;50.306;8.566;2023-06-14T02:05:13;97654.00;;;15.50
15062;BMP180;7630;50.306;8.566;2023-06-14T02:09:16;97651.00;;;15.70
15062;BMP180;7630;50.306;8.566;2023-06-14T02:13:18;97647.00;;;16.40
15062;BMP180;7630;50.306;8.566;2023-06-14T02:17:19;97647.00;;;16.40
15062;BMP180;7630;50.306;8.566;2023-06-14T02:21:21;97648.00;;;16.30
15062;BMP180;7630;50.306;8.566;2023-06-14T02:25:22;97655.00;;;16.10
15062;BMP180;7630;50.306;8.566;2023-06-14T02:29:23;97654.00;;;15.90
15062;BMP180;7630;50.306;8.566;2023-06-14T02:33:25;97663.00;;;15.90
15062;BMP180;7630;50.306;8.566;2023-06-14T02:37:26;97657.00;;;15.80
15062;BMP180;7630;50.306;8.566;2023-06-14T02:41:27;97671.00;;;15.80
15062;BMP180;7630;50.306;8.566;2023-06-14T02:45:28;97666.00;;;16.10
15062;BMP180;7630;50.306;8.566;2023-06-14T02:49:29;97668.00;;;16.10
15062;BMP180;7630;50.306;8.566;2023-06-14T02:53:31;97686.00;;;16.10
15062;BMP180;7630;50.306;8.566;2023-06-14T02:57:32;97679.00;;;15.90
15062;BMP180;7630;50.306;8.566;2023-06-14T03:01:33;97678.00;;;15.90
15062;BMP180;7630;50.306;8.566;2023-06-14T03:05:41;97680.00;;;15.30
15062;BMP180;7630;50.306;8.566;2023-06-14T03:09:44;97674.00;;;15.30
15062;BMP180;7630;50.306;8.566;2023-06-14T03:13:46;97682.00;;;15.50
15062;BMP180;7630;50.306;8.566;2023-06-14T03:17:47;97574.00;;;16.00
15062;BMP180;7630;50.306;8.566;2023-06-14T03:21:50;97693.00;;;15.90
15062;BMP180;7630;50.306;8.566;2023-06-14T03:25:51;97696.00;;;15.90
15062;BMP180;7630;50.306;8.566;2023-06-14T03:29:52;97702.00;;;15.90
15062;BMP180;7630;50.306;8.566;2023-06-14T03:33:53;97554.00;;;15.80
15062;BMP180;7630;50.306;8.566;2023-06-14T03:37:54;97704.00;;;15.70
15062;BMP180;7630;50.306;8.566;2023-06-14T03:41:55;97713.00;;;15.80
15062;BMP180;7630;50.306;8.566;2023-06-14T03:45:56;97714.00;;;15.80
15062;BMP180;7630;50.306;8.566;2023-06-14T03:49:57;97726.00;;;15.80
15062;BMP180;7630;50.306;8.566;2023-06-14T03:53:58;97726.00;;;15.90
15062;BMP180;7630;50.306;8.566;2023-06-14T03:58:01;97730.00;;;15.90
15062;BMP180;7630;50.306;8.566;2023-06-14T04:02:03;97729.00;;;16.10
15062;BMP180;7630;50.306;8.566;2023-06-14T04:06:04;97728.00;;;15.40
15062;BMP180;7630;50.306;8.566;2023-06-14T04:10:07;97755.00;;;15.20
15062;BMP180;7630;50.306;8.566;2023-06-14T04:14:11;97737.00;;;15.40
15062;BMP180;7630;50.306;8.566;2023-06-14T04:18:13;97749.00;;;15.90
15062;BMP180;7630;50.306;8.566;2023-06-14T04:22:14;97736.00;;;16.50
15062;BMP180;7630;50.306;8.566;2023-06-14T04:26:15;97741.00;;;16.70
15062;BMP180;7630;50.306;8.566;2023-06-14T04:30:16;97746.00;;;16.90
15062;BMP180;7630;50.306;8.566;2023-06-14T04:34:17;97750.00;;;16.90
15062;BMP180;7630;50.306;8.566;2023-06-14T04:38:19;97746.00;;;17.10
15062;BMP180;7630;50.306;8.566;2023-06-14T04:42:23;97752.00;;;17.20
15062;BMP180;7630;50.306;8.566;2023-06-14T04:46:26;97757.00;;;17.50
15062;BMP180;7630;50.306;8.566;2023-06-14T04:50:29;97754.00;;;17.80
15062;BMP180;7630;50.306;8.566;2023-06-14T04:54:30;97755.00;;;18.00
15062;BMP180;7630;50.306;8.566;2023-06-14T04:58:33;97761.00;;;17.80
15062;BMP180;7630;50.306;8.566;2023-06-14T05:02:34;97765.00;;;16.00
15062;BMP180;7630;50.306;8.566;2023-06-14T05:06:36;97762.00;;;15.50
15062;BMP180;7630;50.306;8.566;2023-06-14T05:10:37;97774.00;;;15.90
15062;BMP180;7630;50.306;8.566;2023-06-14T05:14:38;97757.00;;;16.00
15062;BMP180;7630;50.306;8.566;2023-06-14T05:18:40;97766.00;;;15.20
15062;BMP180;7630;50.306;8.566;2023-06-14T05:22:42;97770.00;;;16.00
15062;BMP180;7630;50.306;8.566;2023-06-14T05:26:43;97765.00;;;15.30
15062;BMP180;7630;50.306;8.566;2023-06-14T05:30:44;97762.00;;;15.50
15062;BMP180;7630;50.306;8.566;2023-06-14T05:34:45;97772.00;;;15.50
15062;BMP180;7630;50.306;8.566;2023-06-14T05:38:47;97777.00;;;15.70
15062;BMP180;7630;50.306;8.566;2023-06-14T05:42:48;97797.00;;;15.60
15062;BMP180;7630;50.306;8.566;2023-06-14T05:46:49;97778.00;;;16.00
15062;BMP180;7630;50.306;8.566;2023-06-14T05:50:51;97792.00;;;17.30
15062;BMP180;7630;50.306;8.566;2023-06-14T05:54:52;97788.00;;;18.20
15062;BMP180;7630;50.306;8.566;2023-06-14T05:58:53;97788.00;;;18.00
15062;BMP180;7630;50.306;8.566;2023-06-14T06:02:54;97780.00;;;18.40
15062;BMP180;7630;50.306;8.566;2023-06-14T06:06:57;97781.00;;;17.80
15062;BMP180;7630;50.306;8.566;2023-06-14T06:10:58;97785.00;;;18.10
15062;BMP180;7630;50.306;8.566;2023-06-14T06:15:00;97791.00;;;18.00
15062;BMP180;7630;50.306;8.566;2023-06-14T06:19:01;97790.00;;;18.70
15062;BMP180;7630;50.306;8.566;2023-06-14T06:23:02;97807.00;;;18.50
15062;BMP180;7630;50.306;8.566;2023-06-14T06:27:04;97796.00;;;18.50
15062;BMP180;7630;50.306;8.566;2023-06-14T06:31:05;97806.00;;;18.20
15062;BMP180;7630;50.306;8.566;2023-06-14T06:35:07;97813.00;;;16.80
15062;BMP180;7630;50.306;8.566;2023-06-14T06:39:09;97801.00;;;16.40
15062;BMP180;7630;50.306;8.566;2023-06-14T06:43:10;97808.00;;;16.90
15062;BMP180;7630;50.306;8.566;2023-06-14T06:47:13;97817.00;;;16.50
15062;BMP180;7630;50.306;8.566;2023-06-14T06:51:14;97821.00;;;17.00
15062;BMP180;7630;50.306;8.566;2023-06-14T06:55:15;97833.00;;;17.10
15062;BMP180;7630;50.306;8.566;2023-06-14T06:59:17;97813.00;;;16.50
15062;BMP180;7630;50.306;8.566;2023-06-14T07:03:18;97821.00;;;16.70
15062;BMP180;7630;50.306;8.566;2023-06-14T07:07:20;97805.00;;;16.60
15062;BMP180;7630;50.306;8.566;2023-06-14T07:11:21;97822.00;;;17.00
15062;BMP180;7630;50.306;8.566;2023-06-14T07:15:22;97836.00;;;17.20
15062;BMP180;7630;50.306;8.566;2023-06-14T07:19:23;97841.00;;;17.10
15062;BMP180;7630;50.306;8.566;2023-06-14T07:23:24;97845.00;;;17.10
15062;BMP180;7630;50.306;8.566;2023-06-14T07:27:26;97837.00;;;17.30
15062;BMP180;7630;50.306;8.566;2023-06-14T07:31:27;97842.00;;;17.70
15062;BMP180;7630;50.306;8.566;2023-06-14T07:35:28;97834.00;;;17.40
15062;BMP180;7630;50.306;8.566;2023-06-14T07:39:29;97836.00;;;17.30
15062;BMP180;7630;50.306;8.566;2023-06-14T07:43:30;97852.00;;;17.50
15062;BMP180;7630;50.306;8.566;2023-06-14T07:47:32;97835.00;;;18.10
15062;BMP180;7630;50.306;8.566;2023-06-14T07:51:33;97825.00;;;18.10
15062;BMP180;7630;50.306;8.566;2023-06-14T07:55:35;97823.00;;;17.70
15062;BMP180;7630;50.306;8.566;2023-06-14T07:59:39;97830.00;;;18.60
15062;BMP180;7630;50.306;8.566;2023-06-14T08:03:40;97831.00;;;18.50
15062;BMP180;7630;50.306;8.566;2023-06-14T08:07:41;97846.00;;;18.60
15062;BMP180;7630;50.306;8.566;2023-06-14T08:11:43;97835.00;;;18.00
15062;BMP180;7630;50.306;8.566;2023-06-14T08:15:44;97844.00;;;18.10
15062;BMP180;7630;50.306;8.566;2023-06-14T08:19:46;97849.00;;;17.70
15062;BMP180;7630;50.306;8.566;2023-06-14T08:23:47;97832.00;;;18.50
15062;BMP180;7630;50.306;8.566;2023-06-14T08:27:49;97832.00;;;18.60
15062;BMP180;7630;50.306;8.566;2023-06-14T08:31:50;97846.00;;;18.30
15062;BMP180;7630;50.306;8.566;2023-06-14T08:35:51;97857.00;;;18.10
15062;BMP180;7630;50.306;8.566;2023-06-14T08:39:52;97857.00;;;18.40
15062;BMP180;7630;50.306;8.566;2023-06-14T08:43:53;97833.00;;;19.10
15062;BMP180;7630;50.306;8.566;2023-06-14T08:47:55;97834.00;;;18.80
15062;BMP180;7630;50.306;8.566;2023-06-14T08:51:59;97830.00;;;18.60
15062;BMP180;7630;50.306;8.566;2023-06-14T08:56:02;97841.00;;;18.30
15062;BMP180;7630;50.306;8.566;2023-06-14T09:00:06;97838.00;;;19.20
15062;BMP180;7630;50.306;8.566;2023-06-14T09:04:14;97841.00;;;18.90
15062;BMP180;7630;50.306;8.566;2023-06-14T09:08:15;97861.00;;;18.20
15062;BMP180;7630;50.306;8.566;2023-06-14T09:12:17;97843.00;;;19.40
15062;BMP180;7630;50.306;8.566;2023-06-14T09:16:18;97853.00;;;19.40
15062;BMP180;7630;50.306;8.566;2023-06-14T09:20:19;97869.00;;;19.30
15062;BMP180;7630;50.306;8.566;2023-06-14T09:24:26;97850.00;;;19.50
15062;BMP180;7630;50.306;8.566;2023-06-14T09:28:27;97881.00;;;19.50
15062;BMP180;7630;50.306;8.566;2023-06-14T09:32:29;97868.00;;;19.20
15062;BMP180;7630;50.306;8.566;2023-06-14T09:36:31;97880.00;;;19.00
15062;BMP180;7630;50.306;8.566;2023-06-14T09:40:35;97865.00;;;19.90
15062;BMP180;7630;50.306;8.566;2023-06-14T09:44:38;97873.00;;;19.90
15062;BMP180;7630;50.306;8.566;2023-06-14T09:48:40;97873.00;;;19.70
15062;BMP180;7630;50.306;8.566;2023-06-14T09:52:43;97873.00;;;19.40
15062;BMP180;7630;50.306;8.566;2023-06-14T09:56:46;97873.00;;;19.50
15062;BMP180;7630;50.306;8.566;2023-06-14T10:00:50;97795.00;;;19.00
15062;BMP180;7630;50.306;8.566;2023-06-14T10:05:02;97876.00;;;20.40
15062;BMP180;7630;50.306;8.566;2023-06-14T10:09:04;97871.00;;;20.70
15062;BMP180;7630;50.306;8.566;2023-06-14T10:13:07;97872.00;;;20.70
15062;BMP180;7630;50.306;8.566;2023-06-14T10:17:10;97861.00;;;20.70
15062;BMP180;7630;50.306;8.566;2023-06-14T10:25:42;97867.00;;;19.60
15062;BMP180;7630;50.306;8.566;2023-06-14T10:33:57;97863.00;;;20.80
15062;BMP180;7630;50.306;8.566;2023-06-14T10:38:09;97872.00;;;20.00
15062;BMP180;7630;50.306;8.566;2023-06-14T10:42:10;97863.00;;;19.60
15062;BMP180;7630;50.306;8.566;2023-06-14T10:46:18;97864.00;;;20.50
15062;BMP180;7630;50.306;8.566;2023-06-14T10:50:29;97869.00;;;21.10
15062;BMP180;7630;50.306;8.566;2023-06-14T10:54:31;97863.00;;;22.30
15062;BMP180;7630;50.306;8.566;2023-06-14T10:58:32;97864.00;;;20.90
15062;BMP180;7630;50.306;8.566;2023-06-14T11:03:04;97860.00;;;20.70
15062;BMP180;7630;50.306;8.566;2023-06-14T11:06:45;97865.00;;;20.30
15062;BMP180;7630;50.306;8.566;2023-06-14T11:10:47;97856.00;;;20.30
15062;BMP180;7630;50.306;8.566;2023-06-14T11:14:48;97855.00;;;22.40
15062;BMP180;7630;50.306;8.566;2023-06-14T11:18:50;97858.00;;;22.80
15062;BMP180;7630;50.306;8.566;2023-06-14T11:22:52;97859.00;;;24.20
15062;BMP180;7630;50.306;8.566;2023-06-14T11:26:55;97867.00;;;24.30
15062;BMP180;7630;50.306;8.566;2023-06-14T11:31:01;97879.00;;;22.80
15062;BMP180;7630;50.306;8.566;2023-06-14T11:35:03;97883.00;;;21.00
15062;BMP180;7630;50.306;8.566;2023-06-14T11:39:07;97875.00;;;21.20
15062;BMP180;7630;50.306;8.566;2023-06-14T11:43:09;97872.00;;;21.40
15062;BMP180;7630;50.306;8.566;2023-06-14T11:47:10;97869.00;;;24.30
15062;BMP180;7630;50.306;8.566;2023-06-14T11:51:12;97871.00;;;22.20
15062;BMP180;7630;50.306;8.566;2023-06-14T11:55:13;97869.00;;;22.60
15062;BMP180;7630;50.306;8.566;2023-06-14T11:59:15;97710.00;;;21.80
15062;BMP180;7630;50.306;8.566;2023-06-14T12:03:16;97863.00;;;23.80
15062;BMP180;7630;50.306;8.566;2023-06-14T12:07:18;97864.00;;;26.50
15062;BMP180;7630;50.306;8.566;2023-06-14T12:11:20;97869.00;;;26.70
15062;BMP180;7630;50.306;8.566;2023-06-14T12:15:22;97868.00;;;24.10
15062;BMP180;7630;50.306;8.566;2023-06-14T12:19:25;97864.00;;;22.50
15062;BMP180;7630;50.306;8.566;2023-06-14T12:23:26;97862.00;;;22.30
15062;BMP180;7630;50.306;8.566;2023-06-14T12:27:28;97870.00;;;23.70
15062;BMP180;7630;50.306;8.566;2023-06-14T12:31:29;97864.00;;;27.10
15062;BMP180;7630;50.306;8.566;2023-06-14T12:35:31;97863.00;;;23.60
15062;BMP180;7630;50.306;8.566;2023-06-14T12:39:32;97873.00;;;24.10
15062;BMP180;7630;50.306;8.566;2023-06-14T12:43:34;97870.00;;;26.90
15062;BMP180;7630;50.306;8.566;2023-06-14T12:47:35;97857.00;;;26.20
15062;BMP180;7630;50.306;8.566;2023-06-14T12:51:37;97860.00;;;23.20
15062;BMP180;7630;50.306;8.566;2023-06-14T12:55:39;97869.00;;;23.40
15062;BMP180;7630;50.306;8.566;2023-06-14T12:59:40;97878.00;;;23.90
15062;BMP180;7630;50.306;8.566;2023-06-14T13:03:41;97882.00;;;21.80
15062;BMP180;7630;50.306;8.566;2023-06-14T13:07:43;97887.00;;;22.00
15062;BMP180;7630;50.306;8.566;2023-06-14T13:11:45;97888.00;;;22.50
15062;BMP180;7630;50.306;8.566;2023-06-14T13:15:47;97902.00;;;21.40
15062;BMP180;7630;50.306;8.566;2023-06-14T13:19:50;97894.00;;;22.80
15062;BMP180;7630;50.306;8.566;2023-06-14T13:23:51;97890.00;;;22.80
15062;BMP180;7630;50.306;8.566;2023-06-14T13:27:53;97895.00;;;25.10
15062;BMP180;7630;50.306;8.566;2023-06-14T13:31:54;97893.00;;;22.20
15062;BMP180;7630;50.306;8.566;2023-06-14T13:35:56;97878.00;;;22.90
15062;BMP180;7630;50.306;8.566;2023-06-14T13:39:57;97875.00;;;22.90
15062;BMP180;7630;50.306;8.566;2023-06-14T13:43:58;97877.00;;;24.20
15062;BMP180;7630;50.306;8.566;2023-06-14T13:47:59;97894.00;;;25.60
15062;BMP180;7630;50.306;8.566;2023-06-14T13:52:01;97875.00;;;26.80
15062;BMP180;7630;50.306;8.566;2023-06-14T13:56:03;97866.00;;;25.30
15062;BMP180;7630;50.306;8.566;2023-06-14T14:00:06;97870.00;;;23.00
15062;BMP180;7630;50.306;8.566;2023-06-14T14:04:07;97857.00;;;24.10
15062;BMP180;7630;50.306;8.566;2023-06-14T14:08:09;97858.00;;;24.60
15062;BMP180;7630;50.306;8.566;2023-06-14T14:12:10;97865.00;;;25.70
15062;BMP180;7630;50.306;8.566;2023-06-14T14:16:12;97854.00;;;25.60
15062;BMP180;7630;50.306;8.566;2023-06-14T14:20:14;97858.00;;;24.40
15062;BMP180;7630;50.306;8.566;2023-06-14T14:24:17;97856.00;;;22.60
15062;BMP180;7630;50.306;8.566;2023-06-14T14:28:18;97860.00;;;23.70
15062;BMP180;7630;50.306;8.566;2023-06-14T14:32:21;97858.00;;;26.00
15062;BMP180;7630;50.306;8.566;2023-06-14T14:36:22;97854.00;;;28.70
15062;BMP180;7630;50.306;8.566;2023-06-14T14:40:23;97872.00;;;24.70
15062;BMP180;7630;50.306;8.566;2023-06-14T14:44:24;97863.00;;;26.10
15062;BMP180;7630;50.306;8.566;2023-06-14T14:48:25;97875.00;;;24.40
15062;BMP180;7630;50.306;8.566;2023-06-14T14:52:26;97874.00;;;23.20
15062;BMP180;7630;50.306;8.566;2023-06-14T14:56:28;97870.00;;;22.60
15062;BMP180;7630;50.306;8.566;2023-06-14T15:00:29;97868.00;;;23.70
15062;BMP180;7630;50.306;8.566;2023-06-14T15:04:30;97866.00;;;25.00
15062;BMP180;7630;50.306;8.566;2023-06-14T15:08:31;97867.00;;;26.10
15062;BMP180;7630;50.306;8.566;2023-06-14T15:12:32;97859.00;;;23.70
15062;BMP180;7630;50.306;8.566;2023-06-14T15:16:33;97862.00;;;23.50
15062;BMP180;7630;50.306;8.566;2023-06-14T15:20:35;97874.00;;;22.90
15062;BMP180;7630;50.306;8.566;2023-06-14T15:24:36;97870.00;;;22.70
15062;BMP180;7630;50.306;8.566;2023-06-14T15:28:39;97871.00;;;22.90
15062;BMP180;7630;50.306;8.566;2023-06-14T15:32:40;97867.00;;;23.40
15062;BMP180;7630;50.306;8.566;2023-06-14T15:36:41;97862.00;;;23.60
15062;BMP180;7630;50.306;8.566;2023-06-14T15:40:42;97860.00;;;25.50
15062;BMP180;7630;50.306;8.566;2023-06-14T15:44:43;97867.00;;;23.90
15062;BMP180;7630;50.306;8.566;2023-06-14T15:48:44;97866.00;;;22.90
15062;BMP180;7630;50.306;8.566;2023-06-14T15:52:45;97861.00;;;22.90
15062;BMP180;7630;50.306;8.566;2023-06-14T15:56:47;97851.00;;;22.40
15062;BMP180;7630;50.306;8.566;2023-06-14T16:00:48;97863.00;;;23.40
15062;BMP180;7630;50.306;8.566;2023-06-14T16:04:49;97855.00;;;24.70
15062;BMP180;7630;50.306;8.566;2023-06-14T16:08:52;97845.00;;;23.40
15062;BMP180;7630;50.306;8.566;2023-06-14T16:12:53;97847.00;;;24.50
15062;BMP180;7630;50.306;8.566;2023-06-14T16:16:55;97850.00;;;23.60
15062;BMP180;7630;50.306;8.566;2023-06-14T16:20:56;97854.00;;;23.70
15062;BMP180;7630;50.306;8.566;2023-06-14T16:24:57;97857.00;;;22.90
15062;BMP180;7630;50.306;8.566;2023-06-14T16:28:58;97849.00;;;22.60
15062;BMP180;7630;50.306;8.566;2023-06-14T16:32:59;97851.00;;;22.80
15062;BMP180;7630;50.306;8.566;2023-06-14T16:37:01;97859.00;;;22.60
15062;BMP180;7630;50.306;8.566;2023-06-14T16:41:03;97848.00;;;22.70
15062;BMP180;7630;50.306;8.566;2023-06-14T16:45:06;97855.00;;;22.50
15062;BMP180;7630;50.306;8.566;2023-06-14T16:49:07;97858.00;;;23.00
15062;BMP180;7630;50.306;8.566;2023-06-14T16:53:08;97852.00;;;22.80
15062;BMP180;7630;50.306;8.566;2023-06-14T16:57:09;97859.00;;;23.10
15062;BMP180;7630;50.306;8.566;2023-06-14T17:01:12;97850.00;;;23.20
15062;BMP180;7630;50.306;8.566;2023-06-14T17:05:14;97856.00;;;22.90
15062;BMP180;7630;50.306;8.566;2023-06-14T17:09:16;97887.00;;;23.10
15062;BMP180;7630;50.306;8.566;2023-06-14T17:13:17;97884.00;;;23.70
15062;BMP180;7630;50.306;8.566;2023-06-14T17:17:18;97875.00;;;22.70
15062;BMP180;7630;50.306;8.566;2023-06-14T17:21:20;97882.00;;;22.90
15062;BMP180;7630;50.306;8.566;2023-06-14T17:25:21;97882.00;;;23.40
15062;BMP180;7630;50.306;8.566;2023-06-14T17:29:22;97878.00;;;22.90
15062;BMP180;7630;50.306;8.566;2023-06-14T17:33:24;97882.00;;;23.10
15062;BMP180;7630;50.306;8.566;2023-06-14T17:37:26;97885.00;;;22.20
15062;BMP180;7630;50.306;8.566;2023-06-14T17:41:28;97886.00;;;22.00
15062;BMP180;7630;50.306;8.566;2023-06-14T17:45:32;97889.00;;;21.90
15062;BMP180;7630;50.306;8.566;2023-06-14T17:49:33;97898.00;;;22.40
15062;BMP180;7630;50.306;8.566;2023-06-14T17:53:35;97890.00;;;22.60
15062;BMP180;7630;50.306;8.566;2023-06-14T17:57:36;97901.00;;;22.10
15062;BMP180;7630;50.306;8.566;2023-06-14T18:01:37;97895.00;;;22.10
15062;BMP180;7630;50.306;8.566;2023-06-14T18:05:40;97900.00;;;22.00
15062;BMP180;7630;50.306;8.566;2023-06-14T18:09:42;97898.00;;;21.90
15062;BMP180;7630;50.306;8.566;2023-06-14T18:13:43;97907.00;;;21.60
15062;BMP180;7630;50.306;8.566;2023-06-14T18:17:44;97918.00;;;21.60
15062;BMP180;7630;50.306;8.566;2023-06-14T18:21:47;97919.00;;;21.40
15062;BMP180;7630;50.306;8.566;2023-06-14T18:25:48;97923.00;;;21.50
15062;BMP180;7630;50.306;8.566;2023-06-14T18:29:49;97922.00;;;20.90
15062;BMP180;7630;50.306;8.566;2023-06-14T18:33:51;97922.00;;;21.10
15062;BMP180;7630;50.306;8.566;2023-06-14T18:37:52;97946.00;;;20.80
15062;BMP180;7630;50.306;8.566;2023-06-14T18:41:53;97930.00;;;20.90
15062;BMP180;7630;50.306;8.566;2023-06-14T18:45:54;97926.00;;;20.80
15062;BMP180;7630;50.306;8.566;2023-06-14T18:49:55;97933.00;;;20.80
15062;BMP180;7630;50.306;8.566;2023-06-14T18:53:57;97935.00;;;20.70
15062;BMP180;7630;50.306;8.566;2023-06-14T18:57:58;97933.00;;;20.60
15062;BMP180;7630;50.306;8.566;2023-06-14T19:01:59;97941.00;;;20.60
15062;BMP180;7630;50.306;8.566;2023-06-14T19:06:00;97936.00;;;20.60
15062;BMP180;7630;50.306;8.566;2023-06-14T19:10:01;97940.00;;;20.80
15062;BMP180;7630;50.306;8.566;2023-06-14T19:14:02;97945.00;;;19.90
15062;BMP180;7630;50.306;8.566;2023-06-14T19:18:03;97946.00;;;20.40
15062;BMP180;7630;50.306;8.566;2023-06-14T19:22:06;97941.00;;;20.00
15062;BMP180;7630;50.306;8.566;2023-06-14T19:26:07;97946.00;;;19.50
15062;BMP180;7630;50.306;8.566;2023-06-14T19:30:09;97951.00;;;19.40
15062;BMP180;7630;50.306;8.566;2023-06-14T19:34:11;97966.00;;;19.40
15062;BMP180;7630;50.306;8.566;2023-06-14T19:38:12;97976.00;;;20.30
15062;BMP180;7630;50.306;8.566;2023-06-14T19:42:13;97979.00;;;19.90
15062;BMP180;7630;50.306;8.566;2023-06-14T19:46:14;97984.00;;;19.90
15062;BMP180;7630;50.306;8.566;2023-06-14T19:50:17;97984.00;;;19.50
15062;BMP180;7630;50.306;8.566;2023-06-14T19:54:19;97990.00;;;19.00
15062;BMP180;7630;50.306;8.566;2023-06-14T19:58:20;98000.00;;;19.20
15062;BMP180;7630;50.306;8.566;2023-06-14T20:02:21;98005.00;;;19.40
15062;BMP180;7630;50.306;8.566;2023-06-14T20:06:22;98016.00;;;19.70
15062;BMP180;7630;50.306;8.566;2023-06-14T20:10:24;98011.00;;;19.70
15062;BMP180;7630;50.306;8.566;2023-06-14T20:14:25;98016.00;;;19.80
15062;BMP180;7630;50.306;8.566;2023-06-14T20:18:26;98012.00;;;19.90
15062;BMP180;7630;50.306;8.566;2023-06-14T20:22:27;98044.00;;;19.60
15062;BMP180;7630;50.306;8.566;2023-06-14T20:26:28;98024.00;;;20.40
15062;BMP180;7630;50.306;8.566;2023-06-14T20:30:29;98024.00;;;20.70
15062;BMP180;7630;50.306;8.566;2023-06-14T20:34:30;98027.00;;;20.80
15062;BMP180;7630;50.306;8.566;2023-06-14T20:38:32;98025.00;;;21.10
15062;BMP180;7630;50.306;8.566;2023-06-14T20:42:33;98031.00;;;21.00
15062;BMP180;7630;50.306;8.566;2023-06-14T20:46:34;98036.00;;;20.80
15062;BMP180;7630;50.306;8.566;2023-06-14T20:50:38;98026.00;;;20.60
15062;BMP180;7630;50.306;8.566;2023-06-14T20:54:39;98055.00;;;20.50
15062;BMP180;7630;50.306;8.566;2023-06-14T20:58:40;98034.00;;;20.40
15062;BMP180;7630;50.306;8.566;2023-06-14T21:02:41;98039.00;;;20.30
15062;BMP180;7630;50.306;8.566;2023-06-14T21:06:43;98032.00;;;20.20
15062;BMP180;7630;50.306;8.566;2023-06-14T21:10:44;98035.00;;;20.10
15062;BMP180;7630;50.306;8.566;2023-06-14T21:14:47;98041.00;;;20.00
15062;BMP180;7630;50.306;8.566;2023-06-14T21:18:48;98040.00;;;19.90
15062;BMP180;7630;50.306;8.566;2023-06-14T21:22:49;98038.00;;;19.80
15062;BMP180;7630;50.306;8.566;2023-06-14T21:26:51;98037.00;;;19.60
15062;BMP180;7630;50.306;8.566;2023-06-14T21:30:52;98036.00;;;19.50
15062;BMP180;7630;50.306;8.566;2023-06-14T21:34:54;98032.00;;;19.40
15062;BMP180;7630;50.306;8.566;2023-06-14T21:38:55;98037.00;;;19.30
15062;BMP180;7630;50.306;8.566;2023-06-14T21:42:57;98042.00;;;19.30
15062;BMP180;7630;50.306;8.566;2023-06-14T21:46:58;98040.00;;;18.70
15062;BMP180;7630;50.306;8.566;2023-06-14T21:50:59;98048.00;;;19.00
15062;BMP180;7630;50.306;8.566;2023-06-14T21:55:01;98042.00;;;18.90
15062;BMP180;7630;50.306;8.566;2023-06-14T21:59:02;98037.00;;;18.50
15062;BMP180;7630;50.306;8.566;2023-06-14T22:03:03;98038.00;;;18.90
15062;BMP180;7630;50.306;8.566;2023-06-14T22:07:05;98041.00;;;18.60
15062;BMP180;7630;50.306;8.566;2023-06-14T22:11:07;98105.00;;;17.80
15062;BMP180;7630;50.306;8.566;2023-06-14T22:15:10;98043.00;;;17.80
15062;BMP180;7630;50.306;8.566;2023-06-14T22:19:11;98041.00;;;18.10
15062;BMP180;7630;50.306;8.566;2023-06-14T22:23:12;98045.00;;;18.10
15062;BMP180;7630;50.306;8.566;2023-06-14T22:27:15;98042.00;;;18.20
15062;BMP180;7630;50.306;8.566;2023-06-14T22:31:18;98038.00;;;17.30
15062;BMP180;7630;50.306;8.566;2023-06-14T22:35:20;98043.00;;;17.10
15062;BMP180;7630;50.306;8.566;2023-06-14T22:39:21;98046.00;;;17.40
15062;BMP180;7630;50.306;8.566;2023-06-14T22:43:23;98042.00;;;17.90
15062;BMP180;7630;50.306;8.566;2023-06-14T22:47:24;98046.00;;;17.80
15062;BMP180;7630;50.306;8.566;2023-06-14T22:51:26;98046.00;;;17.80
15062;BMP180;7630;50.306;8.566;2023-06-14T22:55:27;98045.00;;;17.70
15062;BMP180;7630;50.306;8.566;2023-06-14T22:59:28;98044.00;;;17.70
15062;BMP180;7630;50.306;8.566;2023-06-14T23:03:30;98058.00;;;17.50
15062;BMP180;7630;50.306;8.566;2023-06-14T23:07:32;98052.00;;;17.60
15062;BMP180;7630;50.306;8.566;2023-06-14T23:11:34;98044.00;;;16.90
15062;BMP180;7630;50.306;8.566;2023-06-14T23:15:36;98043.00;;;17.60
15062;BMP180;7630;50.306;8.566;2023-06-14T23:19:38;98044.00;;;17.60
15062;BMP180;7630;50.306;8.566;2023-06-14T23:23:40;98046.00;;;17.50
15062;BMP180;7630;50.306;8.566;2023-06-14T23:27:41;98047.00;;;17.40
15062;BMP180;7630;50.306;8.566;2023-06-14T23:31:44;98041.00;;;17.10
15062;BMP180;7630;50.306;8.566;2023-06-14T23:35:46;98045.00;;;17.30
15062;BMP180;7630;50.306;8.566;2023-06-14T23:39:47;98036.00;;;16.90
15062;BMP180;7630;50.306;8.566;2023-06-14T23:43:53;98038.00;;;16.80
15062;BMP180;7630;50.306;8.566;2023-06-14T23:47:54;98043.00;;;16.70